aviador You're here:

KFLL Decoded Metar

FORT LAUDERDALE in FL, USA
Report Time2017-11-18 13:53:00
UTC Time2017-11-18 14:12:35
Flight Rules vfr VFR
Wind300° at 03 kt
W.Decomp.*RWY 28: 2.7 kt HW 1.3 kt RCW
W.Rank300° ranks 20
Current wind is below 300° avg. (6.0)
Visibility9999 m
Phenomena:N/A
Clouds:Few 031 Hf
Few 040 Hf
Expected CloudBase > 2,000 ft AGL from Temp-Dew spread
CeilingNone
Temp23°C (ISA +8)
Dew Point18°C (74% RH)
QNH1017 hPa
Density Alt1,083 ft
Elevation10 ft
Report Wrong Elevation
Raw Report
KFLL 181353Z 30003KT 10SM FEW031 FEW040 23/18 A3002 RMK AO2 SLP164
T02330183=

Extra information for KFLL:More info

Metar Taf Metar & Taf Last 4 Metars F.Rules Stats Wind Profile Meteogram Temp Stats Airport Information Weather charts Add Link Nearby VenuesMetar ALERT Operation Metar Decoded Social comments

AIRNAV info for KFLL